sensor_id;sensor_type;location;lat;lon;timestamp;temperature;humidity
4431;DHT22;2228;48.140;11.488;2023-08-08T00:01:32;11.90;49.00
4431;DHT22;2228;48.140;11.488;2023-08-08T00:04:00;11.90;61.20
4431;DHT22;2228;48.140;11.488;2023-08-08T00:06:27;12.00;7.70
4431;DHT22;2228;48.140;11.488;2023-08-08T00:08:54;12.10;9.90
4431;DHT22;2228;48.140;11.488;2023-08-08T00:11:22;12.20;7.90
4431;DHT22;2228;48.140;11.488;2023-08-08T00:13:49;12.20;1.00
4431;DHT22;2228;48.140;11.488;2023-08-08T00:16:16;12.30;1.00
4431;DHT22;2228;48.140;11.488;2023-08-08T00:18:43;12.30;1.00
4431;DHT22;2228;48.140;11.488;2023-08-08T00:21:10;12.30;1.00
4431;DHT22;2228;48.140;11.488;2023-08-08T00:23:37;12.40;1.00
4431;DHT22;2228;48.140;11.488;2023-08-08T00:26:04;12.50;1.00
4431;DHT22;2228;48.140;11.488;2023-08-08T00:28:32;14.00;1.00
4431;DHT22;2228;48.140;11.488;2023-08-08T00:30:59;12.50;1.00
4431;DHT22;2228;48.140;11.488;2023-08-08T00:33:26;12.50;1.00
4431;DHT22;2228;48.140;11.488;2023-08-08T00:35:53;12.50;1.00
4431;DHT22;2228;48.140;11.488;2023-08-08T00:38:20;12.70;1.00
4431;DHT22;2228;48.140;11.488;2023-08-08T00:40:47;12.50;1.00
4431;DHT22;2228;48.140;11.488;2023-08-08T00:43:14;12.50;1.00
4431;DHT22;2228;48.140;11.488;2023-08-08T00:45:44;12.60;1.00
4431;DHT22;2228;48.140;11.488;2023-08-08T00:48:11;13.20;1.00
4431;DHT22;2228;48.140;11.488;2023-08-08T00:50:42;13.70;1.00
4431;DHT22;2228;48.140;11.488;2023-08-08T00:53:10;12.60;1.00
4431;DHT22;2228;48.140;11.488;2023-08-08T00:55:37;12.60;1.00
4431;DHT22;2228;48.140;11.488;2023-08-08T00:58:04;12.50;1.00
4431;DHT22;2228;48.140;11.488;2023-08-08T01:00:32;12.50;1.00
4431;DHT22;2228;48.140;11.488;2023-08-08T01:03:01;10.30;1.00
4431;DHT22;2228;48.140;11.488;2023-08-08T01:05:31;12.40;1.00
4431;DHT22;2228;48.140;11.488;2023-08-08T01:08:04;12.30;18.10
4431;DHT22;2228;48.140;11.488;2023-08-08T01:10:34;12.20;14.80
4431;DHT22;2228;48.140;11.488;2023-08-08T01:13:07;12.20;1.00
4431;DHT22;2228;48.140;11.488;2023-08-08T01:15:36;12.10;20.70
4431;DHT22;2228;48.140;11.488;2023-08-08T01:18:14;12.10;21.90
4431;DHT22;2228;48.140;11.488;2023-08-08T01:20:43;12.10;39.20
4431;DHT22;2228;48.140;11.488;2023-08-08T01:23:14;12.00;41.40
4431;DHT22;2228;48.140;11.488;2023-08-08T01:25:44;12.70;64.90
4431;DHT22;2228;48.140;11.488;2023-08-08T01:28:12;11.90;67.30
4431;DHT22;2228;48.140;11.488;2023-08-08T01:30:39;12.40;90.80
4431;DHT22;2228;48.140;11.488;2023-08-08T01:33:08;12.00;99.90
4431;DHT22;2228;48.140;11.488;2023-08-08T01:35:38;11.70;93.50
4431;DHT22;2228;48.140;11.488;2023-08-08T01:38:11;11.50;99.90
4431;DHT22;2228;48.140;11.488;2023-08-08T01:40:40;12.00;99.90
4431;DHT22;2228;48.140;11.488;2023-08-08T01:43:11;11.40;99.90
4431;DHT22;2228;48.140;11.488;2023-08-08T01:45:39;11.30;99.90
4431;DHT22;2228;48.140;11.488;2023-08-08T01:48:07;11.10;99.90
4431;DHT22;2228;48.140;11.488;2023-08-08T01:50:34;11.10;99.90
4431;DHT22;2228;48.140;11.488;2023-08-08T01:53:01;12.10;99.90
4431;DHT22;2228;48.140;11.488;2023-08-08T01:55:28;11.10;99.90
4431;DHT22;2228;48.140;11.488;2023-08-08T01:57:58;11.00;99.90
4431;DHT22;2228;48.140;11.488;2023-08-08T02:00:26;12.80;99.90
4431;DHT22;2228;48.140;11.488;2023-08-08T02:02:53;10.80;99.90
4431;DHT22;2228;48.140;11.488;2023-08-08T02:05:20;10.70;99.90
4431;DHT22;2228;48.140;11.488;2023-08-08T02:07:47;10.60;99.90
4431;DHT22;2228;48.140;11.488;2023-08-08T02:10:14;10.80;99.90
4431;DHT22;2228;48.140;11.488;2023-08-08T02:12:41;11.70;99.90
4431;DHT22;2228;48.140;11.488;2023-08-08T02:15:08;10.50;99.90
4431;DHT22;2228;48.140;11.488;2023-08-08T02:17:38;10.40;99.90
4431;DHT22;2228;48.140;11.488;2023-08-08T02:20:06;10.30;99.90
4431;DHT22;2228;48.140;11.488;2023-08-08T02:22:33;10.30;99.90
4431;DHT22;2228;48.140;11.488;2023-08-08T02:25:00;10.40;99.90
4431;DHT22;2228;48.140;11.488;2023-08-08T02:27:27;10.20;99.90
4431;DHT22;2228;48.140;11.488;2023-08-08T02:29:53;10.20;99.90
4431;DHT22;2228;48.140;11.488;2023-08-08T02:32:21;10.30;99.90
4431;DHT22;2228;48.140;11.488;2023-08-08T02:34:49;11.30;99.90
4431;DHT22;2228;48.140;11.488;2023-08-08T02:37:16;10.20;99.90
4431;DHT22;2228;48.140;11.488;2023-08-08T02:39:44;10.20;99.90
4431;DHT22;2228;48.140;11.488;2023-08-08T02:42:11;10.20;99.90
4431;DHT22;2228;48.140;11.488;2023-08-08T02:44:37;10.10;99.90
4431;DHT22;2228;48.140;11.488;2023-08-08T02:47:04;10.10;99.90
4431;DHT22;2228;48.140;11.488;2023-08-08T02:49:31;10.00;99.90
4431;DHT22;2228;48.140;11.488;2023-08-08T02:52:00;10.00;99.90
4431;DHT22;2228;48.140;11.488;2023-08-08T02:54:27;9.90;99.90
4431;DHT22;2228;48.140;11.488;2023-08-08T02:56:54;10.40;99.90
4431;DHT22;2228;48.140;11.488;2023-08-08T02:59:21;10.00;99.90
4431;DHT22;2228;48.140;11.488;2023-08-08T03:01:48;10.10;99.90
4431;DHT22;2228;48.140;11.488;2023-08-08T03:04:15;10.60;99.90
4431;DHT22;2228;48.140;11.488;2023-08-08T03:06:42;10.00;99.90
4431;DHT22;2228;48.140;11.488;2023-08-08T03:09:10;10.10;99.90
4431;DHT22;2228;48.140;11.488;2023-08-08T03:11:36;10.00;99.90
4431;DHT22;2228;48.140;11.488;2023-08-08T03:14:07;10.10;99.90
4431;DHT22;2228;48.140;11.488;2023-08-08T03:16:34;10.20;99.90
4431;DHT22;2228;48.140;11.488;2023-08-08T03:19:01;10.20;99.90
4431;DHT22;2228;48.140;11.488;2023-08-08T03:21:28;10.30;99.90
4431;DHT22;2228;48.140;11.488;2023-08-08T03:23:55;12.20;99.90
4431;DHT22;2228;48.140;11.488;2023-08-08T03:26:24;10.60;99.90
4431;DHT22;2228;48.140;11.488;2023-08-08T03:28:51;10.80;99.90
4431;DHT22;2228;48.140;11.488;2023-08-08T03:31:19;11.00;99.90
4431;DHT22;2228;48.140;11.488;2023-08-08T03:33:46;11.10;99.90
4431;DHT22;2228;48.140;11.488;2023-08-08T03:36:14;11.20;99.90
4431;DHT22;2228;48.140;11.488;2023-08-08T03:38:41;8.40;24.10
4431;DHT22;2228;48.140;11.488;2023-08-08T03:41:10;11.60;39.50
4431;DHT22;2228;48.140;11.488;2023-08-08T03:43:38;11.60;22.30
4431;DHT22;2228;48.140;11.488;2023-08-08T03:46:06;11.50;12.60
4431;DHT22;2228;48.140;11.488;2023-08-08T03:48:33;11.40;58.60
4431;DHT22;2228;48.140;11.488;2023-08-08T03:51:00;11.30;65.00
4431;DHT22;2228;48.140;11.488;2023-08-08T03:53:27;7.50;96.30
4431;DHT22;2228;48.140;11.488;2023-08-08T03:55:54;11.40;91.30
4431;DHT22;2228;48.140;11.488;2023-08-08T03:58:21;11.40;93.50
4431;DHT22;2228;48.140;11.488;2023-08-08T04:00:49;12.00;99.90
4431;DHT22;2228;48.140;11.488;2023-08-08T04:03:18;11.50;98.20
4431;DHT22;2228;48.140;11.488;2023-08-08T04:05:45;11.60;73.90
4431;DHT22;2228;48.140;11.488;2023-08-08T04:08:13;12.60;99.90
4431;DHT22;2228;48.140;11.488;2023-08-08T04:10:40;11.60;57.90
4431;DHT22;2228;48.140;11.488;2023-08-08T04:13:07;11.70;65.40
4431;DHT22;2228;48.140;11.488;2023-08-08T04:15:34;11.70;59.60
4431;DHT22;2228;48.140;11.488;2023-08-08T04:18:02;11.70;48.30
4431;DHT22;2228;48.140;11.488;2023-08-08T04:20:32;11.80;46.40
4431;DHT22;2228;48.140;11.488;2023-08-08T04:22:58;11.90;71.10
4431;DHT22;2228;48.140;11.488;2023-08-08T04:25:27;12.00;34.10
4431;DHT22;2228;48.140;11.488;2023-08-08T04:27:54;12.00;39.00
4431;DHT22;2228;48.140;11.488;2023-08-08T04:30:21;12.00;51.30
4431;DHT22;2228;48.140;11.488;2023-08-08T04:32:49;12.10;34.50
4431;DHT22;2228;48.140;11.488;2023-08-08T04:35:17;12.00;31.40
4431;DHT22;2228;48.140;11.488;2023-08-08T04:37:44;12.10;23.00
4431;DHT22;2228;48.140;11.488;2023-08-08T04:40:11;12.10;29.80
4431;DHT22;2228;48.140;11.488;2023-08-08T04:42:38;12.10;51.60
4431;DHT22;2228;48.140;11.488;2023-08-08T04:45:06;12.20;41.60
4431;DHT22;2228;48.140;11.488;2023-08-08T04:47:33;12.30;58.30
4431;DHT22;2228;48.140;11.488;2023-08-08T04:50:00;12.40;29.20
4431;DHT22;2228;48.140;11.488;2023-08-08T04:52:28;12.50;40.70
4431;DHT22;2228;48.140;11.488;2023-08-08T04:54:56;12.60;40.10
4431;DHT22;2228;48.140;11.488;2023-08-08T04:57:23;12.70;26.00
4431;DHT22;2228;48.140;11.488;2023-08-08T04:59:50;12.70;4.80
4431;DHT22;2228;48.140;11.488;2023-08-08T05:02:17;12.80;1.00
4431;DHT22;2228;48.140;11.488;2023-08-08T05:04:43;12.90;1.00
4431;DHT22;2228;48.140;11.488;2023-08-08T05:07:10;13.00;1.00
4431;DHT22;2228;48.140;11.488;2023-08-08T05:09:39;13.00;1.00
4431;DHT22;2228;48.140;11.488;2023-08-08T05:12:07;13.00;1.00
4431;DHT22;2228;48.140;11.488;2023-08-08T05:14:35;13.00;1.00
4431;DHT22;2228;48.140;11.488;2023-08-08T05:17:02;13.00;1.00
4431;DHT22;2228;48.140;11.488;2023-08-08T05:19:30;13.00;1.00
4431;DHT22;2228;48.140;11.488;2023-08-08T05:21:57;15.10;1.00
4431;DHT22;2228;48.140;11.488;2023-08-08T05:24:23;13.40;1.00
4431;DHT22;2228;48.140;11.488;2023-08-08T05:26:52;13.30;1.00
4431;DHT22;2228;48.140;11.488;2023-08-08T05:29:20;13.40;1.00
4431;DHT22;2228;48.140;11.488;2023-08-08T05:31:47;13.60;1.00
4431;DHT22;2228;48.140;11.488;2023-08-08T05:34:14;13.70;1.00
4431;DHT22;2228;48.140;11.488;2023-08-08T05:36:41;13.90;1.00
4431;DHT22;2228;48.140;11.488;2023-08-08T05:39:08;14.00;1.00
4431;DHT22;2228;48.140;11.488;2023-08-08T05:41:36;14.00;1.00
4431;DHT22;2228;48.140;11.488;2023-08-08T05:44:04;14.00;1.00
4431;DHT22;2228;48.140;11.488;2023-08-08T05:46:31;14.40;1.00
4431;DHT22;2228;48.140;11.488;2023-08-08T05:48:58;17.50;1.00
4431;DHT22;2228;48.140;11.488;2023-08-08T05:51:27;14.20;1.00
4431;DHT22;2228;48.140;11.488;2023-08-08T05:53:54;14.50;1.00
4431;DHT22;2228;48.140;11.488;2023-08-08T05:56:20;14.50;1.00
4431;DHT22;2228;48.140;11.488;2023-08-08T05:58:47;14.40;1.00
4431;DHT22;2228;48.140;11.488;2023-08-08T06:01:15;14.20;1.00
4431;DHT22;2228;48.140;11.488;2023-08-08T06:03:42;14.30;1.00
4431;DHT22;2228;48.140;11.488;2023-08-08T06:06:09;14.50;1.00
4431;DHT22;2228;48.140;11.488;2023-08-08T06:08:36;14.60;1.00
4431;DHT22;2228;48.140;11.488;2023-08-08T06:11:03;14.80;1.00
4431;DHT22;2228;48.140;11.488;2023-08-08T06:13:30;15.00;1.00
4431;DHT22;2228;48.140;11.488;2023-08-08T06:15:57;14.60;1.00
4431;DHT22;2228;48.140;11.488;2023-08-08T06:18:25;14.70;1.00
4431;DHT22;2228;48.140;11.488;2023-08-08T06:20:52;14.70;1.00
4431;DHT22;2228;48.140;11.488;2023-08-08T06:23:19;14.70;1.00
4431;DHT22;2228;48.140;11.488;2023-08-08T06:25:46;14.70;1.00
4431;DHT22;2228;48.140;11.488;2023-08-08T06:28:13;14.80;1.00
4431;DHT22;2228;48.140;11.488;2023-08-08T06:30:40;14.90;1.00
4431;DHT22;2228;48.140;11.488;2023-08-08T06:33:07;15.00;1.00
4431;DHT22;2228;48.140;11.488;2023-08-08T06:35:35;15.20;1.00
4431;DHT22;2228;48.140;11.488;2023-08-08T06:38:02;15.20;1.00
4431;DHT22;2228;48.140;11.488;2023-08-08T06:40:29;15.50;1.00
4431;DHT22;2228;48.140;11.488;2023-08-08T06:42:56;15.50;1.00
4431;DHT22;2228;48.140;11.488;2023-08-08T06:45:23;15.50;1.00
4431;DHT22;2228;48.140;11.488;2023-08-08T06:47:50;15.80;1.00
4431;DHT22;2228;48.140;11.488;2023-08-08T06:50:18;16.00;1.00
4431;DHT22;2228;48.140;11.488;2023-08-08T06:52:46;16.20;1.00
4431;DHT22;2228;48.140;11.488;2023-08-08T06:55:13;16.30;1.00
4431;DHT22;2228;48.140;11.488;2023-08-08T06:57:40;16.70;1.00
4431;DHT22;2228;48.140;11.488;2023-08-08T07:00:08;16.60;1.00
4431;DHT22;2228;48.140;11.488;2023-08-08T07:02:37;16.70;1.00
4431;DHT22;2228;48.140;11.488;2023-08-08T07:05:05;16.80;1.00
4431;DHT22;2228;48.140;11.488;2023-08-08T07:07:33;16.80;1.00
4431;DHT22;2228;48.140;11.488;2023-08-08T07:10:03;18.40;1.00
4431;DHT22;2228;48.140;11.488;2023-08-08T07:12:31;16.90;1.00
4431;DHT22;2228;48.140;11.488;2023-08-08T07:14:58;17.10;1.00
4431;DHT22;2228;48.140;11.488;2023-08-08T07:17:25;17.00;1.00
4431;DHT22;2228;48.140;11.488;2023-08-08T07:19:52;17.60;1.00
4431;DHT22;2228;48.140;11.488;2023-08-08T07:22:19;17.80;1.00
4431;DHT22;2228;48.140;11.488;2023-08-08T07:24:46;17.10;1.00
4431;DHT22;2228;48.140;11.488;2023-08-08T07:29:41;17.30;1.00
4431;DHT22;2228;48.140;11.488;2023-08-08T07:32:09;17.30;1.00
4431;DHT22;2228;48.140;11.488;2023-08-08T07:34:36;17.30;1.00
4431;DHT22;2228;48.140;11.488;2023-08-08T07:37:03;17.30;1.00
4431;DHT22;2228;48.140;11.488;2023-08-08T07:39:30;17.30;1.00
4431;DHT22;2228;48.140;11.488;2023-08-08T07:41:57;17.40;1.00
4431;DHT22;2228;48.140;11.488;2023-08-08T07:44:25;17.70;1.00
4431;DHT22;2228;48.140;11.488;2023-08-08T07:46:52;17.70;1.00
4431;DHT22;2228;48.140;11.488;2023-08-08T07:49:19;17.90;1.00
4431;DHT22;2228;48.140;11.488;2023-08-08T07:51:46;17.90;1.00
4431;DHT22;2228;48.140;11.488;2023-08-08T07:54:12;18.20;1.00
4431;DHT22;2228;48.140;11.488;2023-08-08T07:56:39;18.30;1.00
4431;DHT22;2228;48.140;11.488;2023-08-08T07:59:08;18.40;1.00
4431;DHT22;2228;48.140;11.488;2023-08-08T08:01:37;18.60;1.00
4431;DHT22;2228;48.140;11.488;2023-08-08T08:04:04;18.80;1.00
4431;DHT22;2228;48.140;11.488;2023-08-08T08:06:31;18.90;1.00
4431;DHT22;2228;48.140;11.488;2023-08-08T08:08:58;19.10;1.00
4431;DHT22;2228;48.140;11.488;2023-08-08T08:11:25;19.20;1.00
4431;DHT22;2228;48.140;11.488;2023-08-08T08:13:52;19.40;1.00
4431;DHT22;2228;48.140;11.488;2023-08-08T08:16:20;19.30;1.00
4431;DHT22;2228;48.140;11.488;2023-08-08T08:18:48;19.50;1.00
4431;DHT22;2228;48.140;11.488;2023-08-08T08:21:25;19.60;1.00
4431;DHT22;2228;48.140;11.488;2023-08-08T08:24:04;19.90;1.00
4431;DHT22;2228;48.140;11.488;2023-08-08T08:26:36;20.00;1.00
4431;DHT22;2228;48.140;11.488;2023-08-08T08:29:04;20.40;1.00
4431;DHT22;2228;48.140;11.488;2023-08-08T08:31:31;20.50;1.00
4431;DHT22;2228;48.140;11.488;2023-08-08T08:36:40;20.90;1.00
4431;DHT22;2228;48.140;11.488;2023-08-08T08:39:08;20.80;1.00
4431;DHT22;2228;48.140;11.488;2023-08-08T08:41:36;20.90;99.90
4431;DHT22;2228;48.140;11.488;2023-08-08T08:44:04;21.10;99.90
4431;DHT22;2228;48.140;11.488;2023-08-08T08:46:32;21.20;1.00
4431;DHT22;2228;48.140;11.488;2023-08-08T08:49:10;22.30;1.00
4431;DHT22;2228;48.140;11.488;2023-08-08T08:51:39;22.50;99.90
4431;DHT22;2228;48.140;11.488;2023-08-08T08:54:08;22.70;99.90
4431;DHT22;2228;48.140;11.488;2023-08-08T08:56:39;22.30;99.90
4431;DHT22;2228;48.140;11.488;2023-08-08T08:59:20;22.30;1.00
4431;DHT22;2228;48.140;11.488;2023-08-08T09:01:51;22.10;99.90
4431;DHT22;2228;48.140;11.488;2023-08-08T09:04:20;22.10;99.90
4431;DHT22;2228;48.140;11.488;2023-08-08T09:06:51;22.60;99.90
4431;DHT22;2228;48.140;11.488;2023-08-08T09:09:18;26.40;99.90
4431;DHT22;2228;48.140;11.488;2023-08-08T09:11:48;23.10;99.90
4431;DHT22;2228;48.140;11.488;2023-08-08T09:14:17;22.90;99.90
4431;DHT22;2228;48.140;11.488;2023-08-08T09:16:51;22.40;99.90
4431;DHT22;2228;48.140;11.488;2023-08-08T09:19:21;23.60;99.90
4431;DHT22;2228;48.140;11.488;2023-08-08T09:21:48;22.10;99.90
4431;DHT22;2228;48.140;11.488;2023-08-08T09:24:16;22.90;99.90
4431;DHT22;2228;48.140;11.488;2023-08-08T09:29:12;23.20;99.90
4431;DHT22;2228;48.140;11.488;2023-08-08T09:31:40;23.20;99.90
4431;DHT22;2228;48.140;11.488;2023-08-08T09:34:07;23.50;99.90
4431;DHT22;2228;48.140;11.488;2023-08-08T09:36:35;24.40;99.90
4431;DHT22;2228;48.140;11.488;2023-08-08T09:39:03;24.40;99.90
4431;DHT22;2228;48.140;11.488;2023-08-08T09:41:31;24.80;99.90
4431;DHT22;2228;48.140;11.488;2023-08-08T09:44:01;24.80;99.90
4431;DHT22;2228;48.140;11.488;2023-08-08T09:46:30;24.60;99.90
4431;DHT22;2228;48.140;11.488;2023-08-08T09:48:58;24.60;99.90
4431;DHT22;2228;48.140;11.488;2023-08-08T09:51:27;24.10;99.90
4431;DHT22;2228;48.140;11.488;2023-08-08T09:54:01;23.80;99.90
4431;DHT22;2228;48.140;11.488;2023-08-08T09:56:29;24.40;99.90
4431;DHT22;2228;48.140;11.488;2023-08-08T09:58:57;24.90;99.90
4431;DHT22;2228;48.140;11.488;2023-08-08T10:01:25;24.80;99.90
4431;DHT22;2228;48.140;11.488;2023-08-08T10:03:53;25.20;99.90
4431;DHT22;2228;48.140;11.488;2023-08-08T10:06:21;27.10;99.90
4431;DHT22;2228;48.140;11.488;2023-08-08T10:08:51;25.30;99.90
4431;DHT22;2228;48.140;11.488;2023-08-08T10:11:24;24.60;99.90
4431;DHT22;2228;48.140;11.488;2023-08-08T10:13:53;24.30;99.90
4431;DHT22;2228;48.140;11.488;2023-08-08T10:16:22;24.30;99.90
4431;DHT22;2228;48.140;11.488;2023-08-08T10:18:55;23.80;99.90
4431;DHT22;2228;48.140;11.488;2023-08-08T10:21:23;24.70;99.90
4431;DHT22;2228;48.140;11.488;2023-08-08T10:24:02;24.80;99.90
4431;DHT22;2228;48.140;11.488;2023-08-08T10:29:00;24.20;99.90
4431;DHT22;2228;48.140;11.488;2023-08-08T10:31:32;24.40;99.90
4431;DHT22;2228;48.140;11.488;2023-08-08T10:34:01;24.50;99.90
4431;DHT22;2228;48.140;11.488;2023-08-08T10:36:44;24.40;99.90
4431;DHT22;2228;48.140;11.488;2023-08-08T10:39:27;24.40;99.90
4431;DHT22;2228;48.140;11.488;2023-08-08T10:42:01;23.90;99.90
4431;DHT22;2228;48.140;11.488;2023-08-08T10:44:29;23.70;99.90
4431;DHT22;2228;48.140;11.488;2023-08-08T10:46:56;23.70;99.90
4431;DHT22;2228;48.140;11.488;2023-08-08T10:49:26;23.00;99.90
4431;DHT22;2228;48.140;11.488;2023-08-08T10:51:53;22.60;99.90
4431;DHT22;2228;48.140;11.488;2023-08-08T10:54:26;22.20;99.90
4431;DHT22;2228;48.140;11.488;2023-08-08T10:56:57;22.20;99.90
4431;DHT22;2228;48.140;11.488;2023-08-08T10:59:36;24.80;99.90
4431;DHT22;2228;48.140;11.488;2023-08-08T11:02:07;24.00;99.90
4431;DHT22;2228;48.140;11.488;2023-08-08T11:04:35;23.40;99.90
4431;DHT22;2228;48.140;11.488;2023-08-08T11:07:02;22.90;99.90
4431;DHT22;2228;48.140;11.488;2023-08-08T11:09:36;22.90;99.90
4431;DHT22;2228;48.140;11.488;2023-08-08T11:12:15;22.90;99.90
4431;DHT22;2228;48.140;11.488;2023-08-08T11:14:43;23.40;99.90
4431;DHT22;2228;48.140;11.488;2023-08-08T11:17:10;23.70;99.90
4431;DHT22;2228;48.140;11.488;2023-08-08T11:19:39;23.70;99.90
4431;DHT22;2228;48.140;11.488;2023-08-08T11:22:10;23.60;99.90
4431;DHT22;2228;48.140;11.488;2023-08-08T11:24:40;23.70;99.90
4431;DHT22;2228;48.140;11.488;2023-08-08T11:27:10;23.50;99.90
4431;DHT22;2228;48.140;11.488;2023-08-08T11:29:55;23.10;99.90
4431;DHT22;2228;48.140;11.488;2023-08-08T11:32:24;23.20;99.90
4431;DHT22;2228;48.140;11.488;2023-08-08T11:34:57;23.70;99.90
4431;DHT22;2228;48.140;11.488;2023-08-08T11:37:25;24.30;99.90
4431;DHT22;2228;48.140;11.488;2023-08-08T11:39:54;24.90;99.90
4431;DHT22;2228;48.140;11.488;2023-08-08T11:42:25;25.20;99.90
4431;DHT22;2228;48.140;11.488;2023-08-08T11:44:54;25.60;99.90
4431;DHT22;2228;48.140;11.488;2023-08-08T11:47:24;25.80;99.90
4431;DHT22;2228;48.140;11.488;2023-08-08T11:49:52;25.90;99.90
4431;DHT22;2228;48.140;11.488;2023-08-08T11:52:19;25.40;99.90
4431;DHT22;2228;48.140;11.488;2023-08-08T11:54:51;25.10;99.90
4431;DHT22;2228;48.140;11.488;2023-08-08T11:57:21;24.50;99.90
4431;DHT22;2228;48.140;11.488;2023-08-08T11:59:48;24.20;99.90
4431;DHT22;2228;48.140;11.488;2023-08-08T12:02:17;24.30;99.90
4431;DHT22;2228;48.140;11.488;2023-08-08T12:04:45;24.90;99.90
4431;DHT22;2228;48.140;11.488;2023-08-08T12:07:12;25.40;99.90
4431;DHT22;2228;48.140;11.488;2023-08-08T12:09:39;26.10;99.90
4431;DHT22;2228;48.140;11.488;2023-08-08T12:12:08;25.50;99.90
4431;DHT22;2228;48.140;11.488;2023-08-08T12:14:37;25.70;99.90
4431;DHT22;2228;48.140;11.488;2023-08-08T12:17:04;26.40;99.90
4431;DHT22;2228;48.140;11.488;2023-08-08T12:19:32;25.30;99.90
4431;DHT22;2228;48.140;11.488;2023-08-08T12:22:02;24.30;99.90
4431;DHT22;2228;48.140;11.488;2023-08-08T12:24:29;24.10;99.90
4431;DHT22;2228;48.140;11.488;2023-08-08T12:26:58;24.00;99.90
4431;DHT22;2228;48.140;11.488;2023-08-08T12:29:25;23.70;99.90
4431;DHT22;2228;48.140;11.488;2023-08-08T12:31:52;25.10;99.90
4431;DHT22;2228;48.140;11.488;2023-08-08T12:34:22;24.60;99.90
4431;DHT22;2228;48.140;11.488;2023-08-08T12:36:50;25.00;99.90
4431;DHT22;2228;48.140;11.488;2023-08-08T12:39:17;24.80;99.90
4431;DHT22;2228;48.140;11.488;2023-08-08T12:41:44;24.80;99.90
4431;DHT22;2228;48.140;11.488;2023-08-08T12:44:12;25.30;99.90
4431;DHT22;2228;48.140;11.488;2023-08-08T12:46:39;28.10;99.90
4431;DHT22;2228;48.140;11.488;2023-08-08T12:49:06;26.30;99.90
4431;DHT22;2228;48.140;11.488;2023-08-08T12:51:34;26.30;99.90
4431;DHT22;2228;48.140;11.488;2023-08-08T12:54:03;26.40;99.90
4431;DHT22;2228;48.140;11.488;2023-08-08T12:56:30;26.60;99.90
4431;DHT22;2228;48.140;11.488;2023-08-08T12:58:56;26.60;99.90
4431;DHT22;2228;48.140;11.488;2023-08-08T13:01:23;26.10;99.90
4431;DHT22;2228;48.140;11.488;2023-08-08T13:03:51;26.90;99.90
4431;DHT22;2228;48.140;11.488;2023-08-08T13:06:18;26.50;99.90
4431;DHT22;2228;48.140;11.488;2023-08-08T13:08:45;26.20;99.90
4431;DHT22;2228;48.140;11.488;2023-08-08T13:11:13;25.80;99.90
4431;DHT22;2228;48.140;11.488;2023-08-08T13:13:40;25.40;99.90
4431;DHT22;2228;48.140;11.488;2023-08-08T13:16:07;25.00;99.90
4431;DHT22;2228;48.140;11.488;2023-08-08T13:18:33;25.40;99.90
4431;DHT22;2228;48.140;11.488;2023-08-08T13:21:00;26.30;99.90
4431;DHT22;2228;48.140;11.488;2023-08-08T13:23:27;26.50;99.90
4431;DHT22;2228;48.140;11.488;2023-08-08T13:25:54;27.20;99.90
4431;DHT22;2228;48.140;11.488;2023-08-08T13:28:22;25.90;99.90
4431;DHT22;2228;48.140;11.488;2023-08-08T13:30:49;25.70;99.90
4431;DHT22;2228;48.140;11.488;2023-08-08T13:33:16;26.30;99.90
4431;DHT22;2228;48.140;11.488;2023-08-08T13:35:43;26.30;99.90
4431;DHT22;2228;48.140;11.488;2023-08-08T13:38:10;26.90;99.90
4431;DHT22;2228;48.140;11.488;2023-08-08T13:40:40;26.60;99.90
4431;DHT22;2228;48.140;11.488;2023-08-08T13:43:07;26.90;99.90
4431;DHT22;2228;48.140;11.488;2023-08-08T13:45:35;26.70;99.90
4431;DHT22;2228;48.140;11.488;2023-08-08T13:48:03;26.30;99.90
4431;DHT22;2228;48.140;11.488;2023-08-08T13:50:30;26.30;99.90
4431;DHT22;2228;48.140;11.488;2023-08-08T13:52:57;26.70;99.90
4431;DHT22;2228;48.140;11.488;2023-08-08T13:55:24;26.90;99.90
4431;DHT22;2228;48.140;11.488;2023-08-08T13:57:52;28.30;99.90
4431;DHT22;2228;48.140;11.488;2023-08-08T14:00:20;27.60;99.90
4431;DHT22;2228;48.140;11.488;2023-08-08T14:02:48;28.00;99.90
4431;DHT22;2228;48.140;11.488;2023-08-08T14:05:15;26.60;99.90
4431;DHT22;2228;48.140;11.488;2023-08-08T14:07:42;26.00;99.90
4431;DHT22;2228;48.140;11.488;2023-08-08T14:10:09;26.20;99.90
4431;DHT22;2228;48.140;11.488;2023-08-08T14:12:36;26.40;99.90
4431;DHT22;2228;48.140;11.488;2023-08-08T14:15:05;27.40;99.90
4431;DHT22;2228;48.140;11.488;2023-08-08T14:17:32;25.10;99.90
4431;DHT22;2228;48.140;11.488;2023-08-08T14:20:00;24.50;99.90
4431;DHT22;2228;48.140;11.488;2023-08-08T14:22:27;23.80;99.90
4431;DHT22;2228;48.140;11.488;2023-08-08T14:24:54;25.10;99.90
4431;DHT22;2228;48.140;11.488;2023-08-08T14:27:21;24.00;99.90
4431;DHT22;2228;48.140;11.488;2023-08-08T14:29:48;24.50;99.90
4431;DHT22;2228;48.140;11.488;2023-08-08T14:32:14;27.30;99.90
4431;DHT22;2228;48.140;11.488;2023-08-08T14:34:42;25.50;99.90
4431;DHT22;2228;48.140;11.488;2023-08-08T14:37:10;27.00;99.90
4431;DHT22;2228;48.140;11.488;2023-08-08T14:39:37;27.60;99.90
4431;DHT22;2228;48.140;11.488;2023-08-08T14:42:05;27.30;99.90
4431;DHT22;2228;48.140;11.488;2023-08-08T14:44:31;27.70;99.90
4431;DHT22;2228;48.140;11.488;2023-08-08T14:46:58;27.70;99.90
4431;DHT22;2228;48.140;11.488;2023-08-08T14:49:27;26.90;99.90
4431;DHT22;2228;48.140;11.488;2023-08-08T14:51:54;27.30;99.90
4431;DHT22;2228;48.140;11.488;2023-08-08T14:54:23;27.30;99.90
4431;DHT22;2228;48.140;11.488;2023-08-08T14:56:50;27.30;99.90
4431;DHT22;2228;48.140;11.488;2023-08-08T14:59:17;29.30;99.90
4431;DHT22;2228;48.140;11.488;2023-08-08T15:01:44;27.90;99.90
4431;DHT22;2228;48.140;11.488;2023-08-08T15:04:11;27.90;99.90
4431;DHT22;2228;48.140;11.488;2023-08-08T15:06:38;26.90;99.90
4431;DHT22;2228;48.140;11.488;2023-08-08T15:09:07;26.90;99.90
4431;DHT22;2228;48.140;11.488;2023-08-08T15:11:35;27.70;99.90
4431;DHT22;2228;48.140;11.488;2023-08-08T15:14:02;27.00;99.90
4431;DHT22;2228;48.140;11.488;2023-08-08T15:16:29;27.30;99.90
4431;DHT22;2228;48.140;11.488;2023-08-08T15:18:56;28.10;99.90
4431;DHT22;2228;48.140;11.488;2023-08-08T15:21:23;27.90;99.90
4431;DHT22;2228;48.140;11.488;2023-08-08T15:23:50;27.90;99.90
4431;DHT22;2228;48.140;11.488;2023-08-08T15:26:16;28.20;99.90
4431;DHT22;2228;48.140;11.488;2023-08-08T15:28:47;26.20;99.90
4431;DHT22;2228;48.140;11.488;2023-08-08T15:31:14;26.80;99.90
4431;DHT22;2228;48.140;11.488;2023-08-08T15:33:41;27.00;99.90
4431;DHT22;2228;48.140;11.488;2023-08-08T15:36:08;25.80;99.90
4431;DHT22;2228;48.140;11.488;2023-08-08T15:38:35;25.20;99.90
4431;DHT22;2228;48.140;11.488;2023-08-08T15:41:02;25.10;99.90
4431;DHT22;2228;48.140;11.488;2023-08-08T15:43:29;25.70;99.90
4431;DHT22;2228;48.140;11.488;2023-08-08T15:45:57;27.20;99.90
4431;DHT22;2228;48.140;11.488;2023-08-08T15:48:24;29.20;99.90
4431;DHT22;2228;48.140;11.488;2023-08-08T15:50:51;27.30;99.90
4431;DHT22;2228;48.140;11.488;2023-08-08T15:53:18;26.30;99.90
4431;DHT22;2228;48.140;11.488;2023-08-08T15:55:45;26.10;99.90
4431;DHT22;2228;48.140;11.488;2023-08-08T15:58:12;27.60;99.90
4431;DHT22;2228;48.140;11.488;2023-08-08T16:00:39;26.40;99.90
4431;DHT22;2228;48.140;11.488;2023-08-08T16:03:07;27.70;99.90
4431;DHT22;2228;48.140;11.488;2023-08-08T16:05:34;25.20;99.90